createdAt,value
2023-02-13T00:00:57.916Z,1.10
2023-02-13T00:03:25.979Z,0.90
2023-02-13T00:05:53.757Z,0.80
2023-02-13T00:08:21.553Z,0.80
2023-02-13T00:10:49.487Z,0.80
2023-02-13T00:13:17.711Z,0.90
2023-02-13T00:15:45.513Z,0.90
2023-02-13T00:18:14.637Z,1.00
2023-02-13T00:20:42.414Z,1.20
2023-02-13T00:23:10.201Z,1.10
2023-02-13T00:25:39.550Z,1.00
2023-02-13T00:28:07.345Z,1.20
2023-02-13T00:30:35.103Z,1.10
2023-02-13T00:33:02.877Z,1.00
2023-02-13T00:35:32.017Z,0.90
2023-02-13T00:37:59.802Z,0.90
2023-02-13T00:40:27.574Z,0.90
2023-02-13T00:42:55.351Z,0.90
2023-02-13T00:45:23.416Z,0.90
2023-02-13T00:47:51.194Z,0.90
2023-02-13T00:50:19.213Z,1.00
2023-02-13T00:52:48.310Z,1.10
2023-02-13T00:55:16.163Z,0.90
2023-02-13T00:57:44.207Z,0.80
2023-02-13T01:00:13.070Z,0.70
2023-02-13T01:02:40.809Z,0.80
2023-02-13T01:05:09.219Z,0.90
2023-02-13T01:07:36.981Z,0.90
2023-02-13T01:10:07.413Z,0.90
2023-02-13T01:12:35.207Z,0.80
2023-02-13T01:15:03.024Z,0.80
2023-02-13T01:17:30.771Z,0.70
2023-02-13T01:19:58.583Z,0.90
2023-02-13T01:22:26.392Z,0.70
2023-02-13T01:24:54.168Z,0.60
2023-02-13T01:27:23.266Z,0.60
2023-02-13T01:29:51.080Z,0.60
2023-02-13T01:32:18.900Z,0.50
2023-02-13T01:34:46.701Z,0.60
2023-02-13T01:37:14.833Z,0.70
2023-02-13T01:39:42.630Z,0.60
2023-02-13T01:42:16.852Z,0.50
2023-02-13T01:44:51.500Z,0.40
2023-02-13T01:47:26.571Z,0.40
2023-02-13T01:50:02.010Z,0.30
2023-02-13T01:52:30.542Z,0.30
2023-02-13T01:54:58.333Z,0.30
2023-02-13T01:57:29.398Z,0.30
2023-02-13T02:00:02.134Z,0.20
2023-02-13T02:02:32.632Z,0.20
2023-02-13T02:05:00.670Z,0.40
2023-02-13T02:07:30.628Z,0.40
2023-02-13T02:10:02.744Z,0.40
2023-02-13T02:12:37.625Z,0.50
2023-02-13T02:15:08.776Z,0.40
2023-02-13T02:17:36.583Z,0.40
2023-02-13T02:20:15.920Z,0.40
2023-02-13T02:23:37.046Z,0.40
2023-02-13T02:26:44.736Z,0.40
2023-02-13T02:29:38.468Z,0.60
2023-02-13T02:32:43.126Z,0.70
2023-02-13T02:35:20.156Z,0.90
2023-02-13T02:38:03.029Z,0.80
2023-02-13T02:40:38.695Z,0.80
2023-02-13T02:43:20.711Z,1.00
2023-02-13T02:45:55.072Z,0.90
2023-02-13T02:48:46.994Z,1.00
2023-02-13T02:51:24.588Z,0.80
2023-02-13T02:54:03.490Z,0.60
2023-02-13T02:56:38.681Z,0.60
2023-02-13T02:59:29.513Z,0.40
2023-02-13T03:02:15.713Z,0.40
2023-02-13T03:05:06.364Z,0.30
2023-02-13T03:07:34.201Z,0.20
2023-02-13T03:10:37.160Z,0.10
2023-02-13T03:13:31.241Z,-0.10
2023-02-13T03:16:19.002Z,-0.20
2023-02-13T03:19:06.883Z,-0.20
2023-02-13T03:22:05.730Z,-0.30
2023-02-13T03:24:47.023Z,-0.30
2023-02-13T03:27:45.139Z,-0.20
2023-02-13T03:30:21.659Z,-0.30
2023-02-13T03:32:56.809Z,-0.20
2023-02-13T03:35:52.990Z,0.20
2023-02-13T03:38:29.472Z,0.50
2023-02-13T03:41:20.755Z,0.60
2023-02-13T03:44:00.408Z,0.60
2023-02-13T03:46:32.318Z,0.70
2023-02-13T03:49:22.926Z,0.60
2023-02-13T03:51:54.482Z,0.40
2023-02-13T03:54:44.723Z,0.20
2023-02-13T03:57:34.175Z,0.10
2023-02-13T04:00:04.260Z,0.30
2023-02-13T04:02:38.354Z,0.10
2023-02-13T04:05:10.135Z,0.00
2023-02-13T04:07:38.075Z,0.00
2023-02-13T04:10:11.338Z,-0.10
2023-02-13T04:12:47.202Z,-0.10
2023-02-13T04:15:20.581Z,-0.10
2023-02-13T04:17:51.794Z,-0.10
2023-02-13T04:20:20.174Z,-0.20
2023-02-13T04:22:49.470Z,-0.30
2023-02-13T04:25:20.214Z,-0.30
2023-02-13T04:27:48.259Z,-0.40
2023-02-13T04:30:16.383Z,-0.30
2023-02-13T04:32:44.160Z,-0.30
2023-02-13T04:35:13.686Z,-0.40
2023-02-13T04:37:41.504Z,-0.50
2023-02-13T04:40:11.730Z,-0.50
2023-02-13T04:42:40.851Z,-0.60
2023-02-13T04:45:09.382Z,-0.60
2023-02-13T04:47:37.560Z,-0.50
2023-02-13T04:50:05.757Z,-0.50
2023-02-13T04:52:33.573Z,-0.50
2023-02-13T04:55:01.397Z,-0.30
2023-02-13T04:57:29.142Z,-0.20
2023-02-13T04:59:58.264Z,0.00
2023-02-13T05:02:26.151Z,-0.20
2023-02-13T05:04:53.935Z,-0.40
2023-02-13T05:07:21.712Z,-0.50
2023-02-13T05:09:49.513Z,-0.50
2023-02-13T05:12:17.314Z,-0.60
2023-02-13T05:14:45.239Z,-0.70
2023-02-13T05:17:14.385Z,-0.70
2023-02-13T05:19:42.160Z,-0.60
2023-02-13T05:22:28.086Z,-0.70
2023-02-13T05:24:55.891Z,-0.50
2023-02-13T05:27:23.673Z,-0.50
2023-02-13T05:29:50.507Z,-0.50
2023-02-13T05:32:19.633Z,-0.50
2023-02-13T05:34:47.496Z,-0.50
2023-02-13T05:37:15.277Z,-0.60
2023-02-13T05:39:43.099Z,-0.50
2023-02-13T05:42:11.168Z,-0.70
2023-02-13T05:44:38.986Z,-0.70
2023-02-13T05:47:07.030Z,-0.70
2023-02-13T05:49:36.169Z,-0.80
2023-02-13T05:52:04.050Z,-0.90
2023-02-13T05:54:31.856Z,-0.90
2023-02-13T05:56:59.686Z,-0.90
2023-02-13T05:59:27.502Z,-0.80
2023-02-13T06:01:55.272Z,-0.60
2023-02-13T06:04:23.079Z,-0.50
2023-02-13T06:06:52.193Z,-0.60
2023-02-13T06:09:19.954Z,-0.60
2023-02-13T06:11:47.699Z,-0.70
2023-02-13T06:14:15.631Z,-0.70
2023-02-13T06:16:43.519Z,-0.40
2023-02-13T06:19:11.323Z,-0.50
2023-02-13T06:21:39.237Z,-0.60
2023-02-13T06:24:09.270Z,-0.70
2023-02-13T06:26:37.124Z,-0.90
2023-02-13T06:29:06.501Z,-0.90
2023-02-13T06:31:34.727Z,-0.90
2023-02-13T06:34:02.535Z,-1.00
2023-02-13T06:36:30.462Z,-0.70
2023-02-13T06:38:58.258Z,-0.70
2023-02-13T06:41:27.415Z,-0.80
2023-02-13T06:43:55.356Z,-0.80
2023-02-13T06:46:23.276Z,-0.90
2023-02-13T06:48:51.104Z,-1.00
2023-02-13T06:51:18.912Z,-1.00
2023-02-13T06:53:46.739Z,-1.00
2023-02-13T06:56:14.513Z,-1.00
2023-02-13T06:58:43.606Z,-1.10
2023-02-13T07:01:11.460Z,-1.10
2023-02-13T07:03:39.275Z,-1.10
2023-02-13T07:06:07.426Z,-0.90
2023-02-13T07:08:35.192Z,-1.00
2023-02-13T07:11:02.981Z,-1.00
2023-02-13T07:13:30.746Z,-1.00
2023-02-13T07:16:02.876Z,-1.00
2023-02-13T07:18:30.684Z,-0.90
2023-02-13T07:20:59.776Z,-0.70
2023-02-13T07:23:27.746Z,-0.60
2023-02-13T07:25:55.546Z,-0.30
2023-02-13T07:28:23.413Z,-0.30
2023-02-13T07:30:51.625Z,-0.20
2023-02-13T07:33:25.487Z,-0.20
2023-02-13T07:35:53.769Z,-0.10
2023-02-13T07:38:21.574Z,-0.10
2023-02-13T07:40:49.365Z,0.10
2023-02-13T07:43:17.418Z,0.10
2023-02-13T07:45:46.879Z,0.30
2023-02-13T07:48:14.670Z,0.40
2023-02-13T07:50:43.768Z,0.50
2023-02-13T07:53:11.549Z,0.70
2023-02-13T07:55:39.400Z,0.70
2023-02-13T07:58:07.241Z,0.70
2023-02-13T08:00:35.087Z,0.70
2023-02-13T08:03:03.482Z,0.80
2023-02-13T08:05:33.088Z,0.80
2023-02-13T08:08:02.283Z,0.90
2023-02-13T08:10:47.663Z,1.00
2023-02-13T08:13:17.024Z,1.10
2023-02-13T08:15:45.376Z,1.30
2023-02-13T08:18:13.169Z,1.30
2023-02-13T08:20:40.957Z,1.40
2023-02-13T08:23:12.719Z,1.50
2023-02-13T08:25:41.267Z,1.60
2023-02-13T08:28:09.134Z,1.70
2023-02-13T08:30:37.092Z,1.80
2023-02-13T08:33:05.057Z,2.10
2023-02-13T08:35:32.836Z,2.10
2023-02-13T08:38:03.754Z,2.10
2023-02-13T08:40:32.900Z,2.20
2023-02-13T08:43:02.211Z,2.40
2023-02-13T08:45:30.198Z,2.50
2023-02-13T08:47:58.460Z,2.60
2023-02-13T08:50:27.261Z,2.70
2023-02-13T08:52:55.517Z,2.80
2023-02-13T08:55:23.352Z,2.80
2023-02-13T08:57:52.491Z,3.00
2023-02-13T09:00:21.506Z,3.00
2023-02-13T09:02:49.301Z,3.00
2023-02-13T09:05:17.301Z,3.20
2023-02-13T09:07:45.118Z,3.20
2023-02-13T09:10:13.280Z,3.30
2023-02-13T09:12:41.217Z,3.30
2023-02-13T09:15:11.142Z,3.50
2023-02-13T09:17:38.909Z,3.70
2023-02-13T09:20:07.898Z,3.80
2023-02-13T09:22:35.747Z,3.90
2023-02-13T09:25:04.281Z,4.10
2023-02-13T09:27:32.199Z,4.30
2023-02-13T09:30:00.322Z,4.40
2023-02-13T09:32:29.720Z,4.50
2023-02-13T09:34:57.479Z,5.00
2023-02-13T09:37:25.272Z,5.60
2023-02-13T09:39:53.054Z,6.20
2023-02-13T09:42:25.397Z,7.00
2023-02-13T09:44:55.114Z,7.90
2023-02-13T09:47:32.337Z,8.50
2023-02-13T09:50:04.439Z,9.20
2023-02-13T09:52:35.415Z,9.70
2023-02-13T09:55:04.060Z,10.00
2023-02-13T09:57:36.554Z,10.10
2023-02-13T10:00:14.692Z,10.90
2023-02-13T10:03:12.694Z,11.30
2023-02-13T10:05:57.299Z,10.90
2023-02-13T10:08:47.662Z,10.80
2023-02-13T10:11:43.129Z,10.90
2023-02-13T10:14:17.506Z,11.30
2023-02-13T10:16:50.783Z,12.20
2023-02-13T10:19:33.564Z,11.70
2023-02-13T10:22:06.105Z,11.80
2023-02-13T10:24:38.122Z,12.10
2023-02-13T10:27:19.104Z,12.40
2023-02-13T10:30:06.756Z,12.70
2023-02-13T10:32:50.439Z,12.90
2023-02-13T10:35:24.775Z,13.10
2023-02-13T10:37:56.114Z,13.20
2023-02-13T10:40:31.221Z,13.60
2023-02-13T10:43:07.739Z,13.60
2023-02-13T10:45:58.164Z,13.60
2023-02-13T10:48:38.775Z,13.60
2023-02-13T10:51:14.041Z,13.90
2023-02-13T10:53:57.436Z,13.80
2023-02-13T10:56:31.217Z,14.10
2023-02-13T10:59:10.739Z,14.40
2023-02-13T11:01:45.162Z,14.30
2023-02-13T11:04:17.724Z,14.40
2023-02-13T11:06:52.097Z,14.50
2023-02-13T11:09:20.814Z,14.30
2023-02-13T11:11:48.618Z,14.30
2023-02-13T11:16:53.747Z,14.60
2023-02-13T11:19:25.835Z,14.60
2023-02-13T11:22:01.296Z,14.90
2023-02-13T11:24:30.850Z,14.90
2023-02-13T11:27:02.284Z,15.20
2023-02-13T11:29:32.265Z,15.00
2023-02-13T11:32:21.522Z,15.00
2023-02-13T11:34:51.823Z,14.70
2023-02-13T11:37:24.690Z,15.10
2023-02-13T11:39:54.150Z,15.10
2023-02-13T11:42:30.317Z,15.00
2023-02-13T11:45:01.550Z,14.90
2023-02-13T11:47:38.947Z,14.30
2023-02-13T11:50:20.876Z,14.70
2023-02-13T11:52:57.695Z,14.50
2023-02-13T11:55:30.135Z,14.10
2023-02-13T11:58:00.543Z,14.00
2023-02-13T12:00:35.322Z,13.70
2023-02-13T12:03:03.285Z,13.70
2023-02-13T12:05:31.156Z,13.70
2023-02-13T12:08:02.119Z,13.50
2023-02-13T12:10:31.103Z,13.40
2023-02-13T12:13:02.595Z,13.40
2023-02-13T12:15:33.877Z,13.30
2023-02-13T12:18:11.417Z,13.30
2023-02-13T12:20:50.588Z,12.90
2023-02-13T12:23:30.607Z,12.90
2023-02-13T12:26:09.694Z,13.20
2023-02-13T12:28:52.766Z,13.10
2023-02-13T12:31:40.432Z,12.70
2023-02-13T12:34:39.323Z,12.40
2023-02-13T12:37:20.432Z,12.00
2023-02-13T12:40:01.696Z,11.90
2023-02-13T12:42:41.858Z,11.80
2023-02-13T12:45:25.143Z,11.80
2023-02-13T12:48:09.652Z,11.60
2023-02-13T12:50:54.871Z,11.40
2023-02-13T12:53:42.853Z,11.80
2023-02-13T12:56:42.710Z,11.60
2023-02-13T12:59:19.784Z,11.40
2023-02-13T13:02:03.501Z,11.00
2023-02-13T13:04:43.900Z,11.00
2023-02-13T13:07:24.698Z,11.20
2023-02-13T13:10:03.479Z,11.20
2023-02-13T13:12:46.606Z,11.20
2023-02-13T13:15:26.482Z,10.90
2023-02-13T13:18:07.340Z,10.50
2023-02-13T13:20:52.044Z,10.40
2023-02-13T13:23:23.376Z,10.30
2023-02-13T13:26:02.648Z,10.40
2023-02-13T13:28:36.050Z,10.40
2023-02-13T13:31:04.962Z,10.50
2023-02-13T13:33:34.677Z,10.40
2023-02-13T13:36:08.623Z,10.30
2023-02-13T13:38:51.765Z,10.30
2023-02-13T13:41:27.737Z,10.20
2023-02-13T13:44:10.319Z,10.30
2023-02-13T13:46:49.968Z,10.20
2023-02-13T13:49:29.926Z,10.10
2023-02-13T13:52:11.363Z,10.10
2023-02-13T13:54:39.173Z,10.00
2023-02-13T13:57:08.344Z,10.00
2023-02-13T14:00:25.266Z,10.00
2023-02-13T14:03:24.405Z,9.90
2023-02-13T14:06:02.159Z,9.90
2023-02-13T14:09:01.052Z,9.90
2023-02-13T14:11:33.855Z,9.90
2023-02-13T14:14:03.216Z,9.80
2023-02-13T14:16:42.317Z,9.70
2023-02-13T14:19:29.926Z,9.70
2023-02-13T14:22:28.679Z,9.70
2023-02-13T14:24:58.926Z,9.70
2023-02-13T14:27:30.721Z,9.70
2023-02-13T14:29:59.513Z,9.80
2023-02-13T14:32:31.976Z,9.80
2023-02-13T14:35:03.290Z,9.70
2023-02-13T14:37:36.647Z,9.70
2023-02-13T14:40:33.388Z,9.60
2023-02-13T14:43:29.679Z,9.60
2023-02-13T14:46:00.911Z,9.50
2023-02-13T14:48:43.999Z,9.50
2023-02-13T14:51:28.490Z,9.60
2023-02-13T14:54:00.904Z,9.60
2023-02-13T14:56:30.476Z,9.60
2023-02-13T14:59:07.227Z,9.50
2023-02-13T15:01:38.170Z,9.50
2023-02-13T15:04:12.195Z,9.50
2023-02-13T15:06:44.763Z,9.40
2023-02-13T15:09:27.090Z,9.40
2023-02-13T15:11:54.949Z,9.30
2023-02-13T15:14:26.584Z,9.30
2023-02-13T15:16:58.780Z,9.40
2023-02-13T15:19:28.275Z,9.30
2023-02-13T15:21:59.945Z,9.20
2023-02-13T15:24:36.466Z,9.20
2023-02-13T15:27:06.564Z,9.10
2023-02-13T15:29:48.864Z,9.10
2023-02-13T15:32:21.734Z,9.10
2023-02-13T15:34:49.963Z,9.00
2023-02-13T15:37:24.386Z,9.00
2023-02-13T15:39:52.164Z,8.90
2023-02-13T15:42:20.249Z,8.90
2023-02-13T15:44:50.960Z,8.90
2023-02-13T15:47:23.414Z,8.90
2023-02-13T15:49:51.525Z,8.80
2023-02-13T15:52:26.754Z,8.70
2023-02-13T15:54:56.175Z,8.70
2023-02-13T15:57:25.722Z,8.60
2023-02-13T15:59:55.309Z,8.50
2023-02-13T16:02:26.428Z,8.60
2023-02-13T16:04:56.354Z,8.50
2023-02-13T16:07:25.540Z,8.50
2023-02-13T16:09:53.761Z,8.30
2023-02-13T16:12:24.966Z,8.20
2023-02-13T16:14:56.328Z,8.10
2023-02-13T16:17:30.781Z,8.00
2023-02-13T16:20:02.878Z,7.90
2023-02-13T16:22:36.137Z,7.80
2023-02-13T16:25:18.032Z,7.70
2023-02-13T16:27:48.192Z,7.60
2023-02-13T16:30:33.548Z,7.50
2023-02-13T16:33:13.351Z,7.40
2023-02-13T16:35:43.939Z,7.20
2023-02-13T16:38:32.732Z,7.10
2023-02-13T16:41:02.251Z,7.00
2023-02-13T16:43:45.264Z,6.80
2023-02-13T16:46:19.921Z,6.60
2023-02-13T16:48:58.985Z,6.50
2023-02-13T16:51:34.430Z,6.50
2023-02-13T16:54:05.438Z,6.30
2023-02-13T16:56:41.122Z,6.30
2023-02-13T16:59:22.685Z,6.20
2023-02-13T17:02:03.075Z,6.00
2023-02-13T17:04:31.087Z,5.80
2023-02-13T17:06:58.880Z,5.50
2023-02-13T17:09:28.087Z,5.40
2023-02-13T17:11:55.817Z,5.20
2023-02-13T17:14:23.653Z,5.10
2023-02-13T17:16:51.549Z,5.00
2023-02-13T17:19:19.358Z,4.90
2023-02-13T17:21:47.204Z,4.80
2023-02-13T17:24:18.647Z,4.70
2023-02-13T17:26:47.764Z,4.60
2023-02-13T17:29:15.536Z,4.60
2023-02-13T17:31:43.510Z,4.60
2023-02-13T17:34:12.229Z,4.50
2023-02-13T17:36:40.058Z,4.40
2023-02-13T17:39:07.961Z,4.40
2023-02-13T17:41:38.176Z,4.50
2023-02-13T17:44:07.434Z,4.40
2023-02-13T17:46:35.238Z,4.30
2023-02-13T17:49:04.322Z,4.10
2023-02-13T17:51:32.955Z,3.90
2023-02-13T17:54:00.884Z,3.80
2023-02-13T17:56:28.709Z,3.70
2023-02-13T17:58:56.480Z,3.70
2023-02-13T18:01:25.642Z,3.60
2023-02-13T18:03:53.449Z,3.50
2023-02-13T18:06:21.251Z,3.50
2023-02-13T18:08:49.041Z,3.40
2023-02-13T18:11:16.806Z,3.20
2023-02-13T18:13:48.039Z,3.20
2023-02-13T18:16:16.227Z,3.20
2023-02-13T18:18:45.402Z,3.20
2023-02-13T18:21:13.698Z,3.30
2023-02-13T18:23:41.587Z,3.30
2023-02-13T18:26:11.457Z,3.20
2023-02-13T18:28:39.317Z,3.20
2023-02-13T18:31:10.347Z,3.20
2023-02-13T18:33:38.271Z,3.10
2023-02-13T18:36:08.026Z,3.00
2023-02-13T18:38:35.885Z,3.00
2023-02-13T18:41:04.233Z,2.90
2023-02-13T18:43:32.079Z,2.90
2023-02-13T18:46:01.194Z,3.00
2023-02-13T18:48:30.831Z,3.00
2023-02-13T18:51:01.009Z,3.00
2023-02-13T18:53:31.114Z,2.90
2023-02-13T18:56:03.048Z,3.00
2023-02-13T18:58:31.218Z,3.00
2023-02-13T19:01:05.629Z,2.90
2023-02-13T19:03:33.602Z,2.70
2023-02-13T19:06:06.865Z,2.60
2023-02-13T19:08:37.358Z,2.50
2023-02-13T19:11:06.077Z,2.60
2023-02-13T19:13:34.137Z,2.50
2023-02-13T19:16:05.823Z,2.50
2023-02-13T19:18:36.298Z,2.30
2023-02-13T19:21:05.083Z,2.20
2023-02-13T19:23:33.673Z,2.10
2023-02-13T19:26:07.111Z,2.00
2023-02-13T19:28:35.017Z,1.90
2023-02-13T19:31:04.546Z,2.10
2023-02-13T19:33:33.312Z,2.10
2023-02-13T19:36:02.363Z,1.90
2023-02-13T19:38:30.181Z,1.90
2023-02-13T19:41:03.172Z,1.90
2023-02-13T19:43:32.425Z,1.80
2023-02-13T19:46:02.697Z,1.70
2023-02-13T19:48:30.621Z,1.70
2023-02-13T19:50:59.150Z,1.60
2023-02-13T19:53:27.079Z,1.50
2023-02-13T19:56:00.054Z,1.50
2023-02-13T19:58:28.004Z,1.40
2023-02-13T20:00:57.401Z,1.40
2023-02-13T20:03:25.296Z,1.30
2023-02-13T20:05:53.096Z,1.30
2023-02-13T20:08:20.888Z,1.30
2023-02-13T20:10:48.750Z,1.30
2023-02-13T20:13:16.546Z,1.30
2023-02-13T20:15:44.386Z,1.40
2023-02-13T20:18:13.589Z,1.30
2023-02-13T20:20:41.833Z,1.30
2023-02-13T20:23:10.066Z,1.30
2023-02-13T20:25:37.985Z,1.30
2023-02-13T20:28:10.738Z,1.20
2023-02-13T20:30:40.927Z,1.20
2023-02-13T20:33:08.896Z,1.10
2023-02-13T20:35:38.080Z,1.00
2023-02-13T20:38:06.154Z,1.00
2023-02-13T20:40:34.038Z,1.00
2023-02-13T20:43:01.813Z,1.10
2023-02-13T20:45:29.632Z,1.10
2023-02-13T20:47:57.489Z,1.20
2023-02-13T20:50:25.875Z,1.10
2023-02-13T20:52:54.996Z,1.10
2023-02-13T20:55:22.790Z,1.10
2023-02-13T20:57:50.601Z,1.10
2023-02-13T21:00:19.056Z,1.00
2023-02-13T21:02:46.918Z,0.90
2023-02-13T21:05:14.722Z,0.90
2023-02-13T21:07:42.566Z,0.90
2023-02-13T21:10:12.329Z,1.00
2023-02-13T21:12:40.153Z,1.00
2023-02-13T21:15:08.494Z,1.10
2023-02-13T21:17:36.351Z,1.10
2023-02-13T21:20:05.573Z,1.00
2023-02-13T21:22:33.459Z,0.90
2023-02-13T21:25:01.282Z,0.90
2023-02-13T21:27:30.530Z,1.00
2023-02-13T21:29:58.444Z,0.90
2023-02-13T21:32:26.288Z,0.90
2023-02-13T21:34:56.379Z,0.90
2023-02-13T21:37:24.198Z,0.90
2023-02-13T21:39:52.004Z,0.80
2023-02-13T21:42:19.797Z,0.90
2023-02-13T21:44:49.234Z,0.90
2023-02-13T21:47:17.295Z,1.10
2023-02-13T21:49:45.175Z,0.80
2023-02-13T21:52:12.953Z,0.80
2023-02-13T21:54:40.746Z,0.80
2023-02-13T21:57:08.572Z,0.80
2023-02-13T21:59:36.361Z,0.70
2023-02-13T22:02:05.571Z,0.70
2023-02-13T22:04:33.450Z,0.70
2023-02-13T22:07:01.244Z,0.70
2023-02-13T22:09:29.048Z,0.70
2023-02-13T22:11:56.870Z,0.60
2023-02-13T22:14:24.699Z,0.50
2023-02-13T22:16:53.610Z,0.40
2023-02-13T22:19:22.950Z,0.30
2023-02-13T22:21:50.945Z,0.30
2023-02-13T22:24:18.764Z,0.30
2023-02-13T22:26:46.613Z,0.20
2023-02-13T22:29:17.761Z,0.10
2023-02-13T22:31:46.106Z,0.10
2023-02-13T22:34:14.707Z,0.00
2023-02-13T22:36:43.887Z,0.00
2023-02-13T22:39:13.075Z,0.00
2023-02-13T22:41:41.025Z,0.20
2023-02-13T22:44:08.869Z,0.20
2023-02-13T22:46:36.750Z,0.40
2023-02-13T22:49:04.666Z,0.50
2023-02-13T22:51:34.312Z,0.50
2023-02-13T22:54:03.934Z,0.40
2023-02-13T22:56:32.589Z,0.50
2023-02-13T22:59:01.087Z,0.50
2023-02-13T23:01:29.785Z,0.60
2023-02-13T23:03:58.552Z,0.50
2023-02-13T23:06:26.932Z,0.20
2023-02-13T23:08:55.254Z,0.00
2023-02-13T23:11:43.834Z,0.00
2023-02-13T23:14:12.546Z,0.00
2023-02-13T23:16:59.368Z,-0.10
2023-02-13T23:19:29.634Z,-0.10
2023-02-13T23:21:57.544Z,0.00
2023-02-13T23:24:25.376Z,-0.10
2023-02-13T23:26:54.525Z,-0.10
2023-02-13T23:29:22.748Z,-0.10
2023-02-13T23:31:50.663Z,-0.20
2023-02-13T23:34:18.547Z,-0.20
2023-02-13T23:36:46.372Z,-0.20
2023-02-13T23:39:14.186Z,-0.10
2023-02-13T23:41:42.113Z,-0.20
2023-02-13T23:44:11.271Z,-0.20
2023-02-13T23:46:39.169Z,-0.20
2023-02-13T23:49:07.623Z,-0.30
2023-02-13T23:51:35.576Z,-0.40
2023-02-13T23:54:03.482Z,-0.50
2023-02-13T23:56:31.389Z,-0.60
2023-02-13T23:58:59.215Z,-0.70
